sensor_id;sensor_type;location;lat;lon;timestamp;pressure;altitude;pressure_sealevel;temperature;humidity
18900;BME280;9582;52.018;6.306;2023-03-31T00:01:48;101925.19;;;9.63;100.00
18900;BME280;9582;52.018;6.306;2023-03-31T00:04:17;101919.00;;;9.67;100.00
18900;BME280;9582;52.018;6.306;2023-03-31T00:06:49;101905.03;;;9.68;100.00
18900;BME280;9582;52.018;6.306;2023-03-31T00:09:18;101907.66;;;9.68;100.00
18900;BME280;9582;52.018;6.306;2023-03-31T00:11:46;101899.88;;;9.67;100.00
18900;BME280;9582;52.018;6.306;2023-03-31T00:14:13;101893.75;;;9.68;100.00
18900;BME280;9582;52.018;6.306;2023-03-31T00:16:42;101888.56;;;9.66;100.00
18900;BME280;9582;52.018;6.306;2023-03-31T00:19:10;101875.50;;;9.66;100.00
18900;BME280;9582;52.018;6.306;2023-03-31T00:21:42;101873.75;;;9.67;100.00
18900;BME280;9582;52.018;6.306;2023-03-31T00:24:11;101866.88;;;9.63;100.00
18900;BME280;9582;52.018;6.306;2023-03-31T00:26:38;101861.72;;;9.60;100.00
18900;BME280;9582;52.018;6.306;2023-03-31T00:29:08;101864.38;;;9.58;100.00
18900;BME280;9582;52.018;6.306;2023-03-31T00:31:35;101851.34;;;9.57;100.00
18900;BME280;9582;52.018;6.306;2023-03-31T00:34:03;101851.34;;;9.57;100.00
18900;BME280;9582;52.018;6.306;2023-03-31T00:36:30;101846.22;;;9.54;100.00
18900;BME280;9582;52.018;6.306;2023-03-31T00:39:02;101849.66;;;9.54;100.00
18900;BME280;9582;52.018;6.306;2023-03-31T00:41:32;101840.91;;;9.57;100.00
18900;BME280;9582;52.018;6.306;2023-03-31T00:44:01;101834.78;;;9.59;100.00
18900;BME280;9582;52.018;6.306;2023-03-31T00:46:32;101831.22;;;9.62;100.00
18900;BME280;9582;52.018;6.306;2023-03-31T00:49:00;101822.44;;;9.64;100.00
18900;BME280;9582;52.018;6.306;2023-03-31T00:51:28;101810.22;;;9.66;100.00
18900;BME280;9582;52.018;6.306;2023-03-31T00:53:58;101809.19;;;9.72;100.00
18900;BME280;9582;52.018;6.306;2023-03-31T00:56:35;101812.53;;;9.77;100.00
18900;BME280;9582;52.018;6.306;2023-03-31T00:59:06;101808.97;;;9.81;100.00
18900;BME280;9582;52.018;6.306;2023-03-31T01:01:35;101803.66;;;9.84;100.00
18900;BME280;9582;52.018;6.306;2023-03-31T01:04:07;101797.50;;;9.86;100.00
18900;BME280;9582;52.018;6.306;2023-03-31T01:30:18;101807.41;;;10.06;100.00
18900;BME280;9582;52.018;6.306;2023-03-31T01:33:09;101810.13;;;10.03;100.00
18900;BME280;9582;52.018;6.306;2023-03-31T01:35:54;101815.41;;;10.00;100.00
18900;BME280;9582;52.018;6.306;2023-03-31T01:38:42;101806.78;;;9.98;100.00
18900;BME280;9582;52.018;6.306;2023-03-31T01:41:27;101809.41;;;9.97;100.00
18900;BME280;9582;52.018;6.306;2023-03-31T01:44:02;101812.97;;;9.94;100.00
18900;BME280;9582;52.018;6.306;2023-03-31T01:46:35;101808.69;;;9.92;100.00
18900;BME280;9582;52.018;6.306;2023-03-31T01:49:14;101814.84;;;9.89;100.00
18900;BME280;9582;52.018;6.306;2023-03-31T01:51:47;101822.81;;;9.84;100.00
18900;BME280;9582;52.018;6.306;2023-03-31T01:54:18;101824.63;;;9.81;100.00
18900;BME280;9582;52.018;6.306;2023-03-31T01:56:49;101819.50;;;9.78;100.00
18900;BME280;9582;52.018;6.306;2023-03-31T01:59:22;101822.19;;;9.75;100.00
18900;BME280;9582;52.018;6.306;2023-03-31T02:01:55;101817.03;;;9.72;100.00
18900;BME280;9582;52.018;6.306;2023-03-31T02:04:26;101852.78;;;9.70;100.00
18900;BME280;9582;52.018;6.306;2023-03-31T02:06:57;101843.19;;;9.70;100.00
18900;BME280;9582;52.018;6.306;2023-03-31T02:09:28;101841.47;;;9.69;100.00
18900;BME280;9582;52.018;6.306;2023-03-31T02:11:58;101851.09;;;9.67;100.00
18900;BME280;9582;52.018;6.306;2023-03-31T02:14:29;101848.50;;;9.67;100.00
18900;BME280;9582;52.018;6.306;2023-03-31T02:16:57;101857.22;;;9.66;100.00
18900;BME280;9582;52.018;6.306;2023-03-31T02:19:28;101858.16;;;9.64;100.00
18900;BME280;9582;52.018;6.306;2023-03-31T02:21:56;101863.44;;;9.61;100.00
18900;BME280;9582;52.018;6.306;2023-03-31T02:24:27;101873.88;;;9.61;100.00
18900;BME280;9582;52.018;6.306;2023-03-31T02:27:02;101881.72;;;9.61;100.00
18900;BME280;9582;52.018;6.306;2023-03-31T02:29:31;101886.94;;;9.61;100.00
18900;BME280;9582;52.018;6.306;2023-03-31T02:32:01;101889.56;;;9.61;100.00
18900;BME280;9582;52.018;6.306;2023-03-31T02:34:29;101892.03;;;9.65;100.00
18900;BME280;9582;52.018;6.306;2023-03-31T02:36:57;101908.56;;;9.67;100.00
18900;BME280;9582;52.018;6.306;2023-03-31T02:39:26;101912.88;;;9.68;100.00
18900;BME280;9582;52.018;6.306;2023-03-31T02:41:53;101917.22;;;9.69;100.00
18900;BME280;9582;52.018;6.306;2023-03-31T02:44:25;101929.31;;;9.73;100.00
18900;BME280;9582;52.018;6.306;2023-03-31T02:46:52;101947.56;;;9.75;100.00
18900;BME280;9582;52.018;6.306;2023-03-31T02:49:19;101951.88;;;9.76;100.00
18900;BME280;9582;52.018;6.306;2023-03-31T02:51:58;101969.19;;;9.80;100.00
18900;BME280;9582;52.018;6.306;2023-03-31T02:54:39;101966.56;;;9.81;100.00
18900;BME280;9582;52.018;6.306;2023-03-31T02:57:25;101974.34;;;9.83;100.00
18900;BME280;9582;52.018;6.306;2023-03-31T03:00:06;101972.66;;;9.82;100.00
18900;BME280;9582;52.018;6.306;2023-03-31T03:02:50;101978.75;;;9.81;100.00
18900;BME280;9582;52.018;6.306;2023-03-31T03:05:27;101975.34;;;9.79;100.00
18900;BME280;9582;52.018;6.306;2023-03-31T03:08:51;101972.72;;;9.77;100.00
18900;BME280;9582;52.018;6.306;2023-03-31T03:11:26;101960.59;;;9.76;100.00
18900;BME280;9582;52.018;6.306;2023-03-31T03:14:02;101954.44;;;9.77;100.00
18900;BME280;9582;52.018;6.306;2023-03-31T03:16:37;101964.88;;;9.79;100.00
18900;BME280;9582;52.018;6.306;2023-03-31T03:19:06;101970.91;;;9.81;100.00
18900;BME280;9582;52.018;6.306;2023-03-31T03:21:33;101979.56;;;9.83;100.00
18900;BME280;9582;52.018;6.306;2023-03-31T03:24:00;101982.19;;;9.83;100.00
18900;BME280;9582;52.018;6.306;2023-03-31T03:26:27;101986.53;;;9.82;100.00
18900;BME280;9582;52.018;6.306;2023-03-31T03:28:54;101990.94;;;9.82;100.00
18900;BME280;9582;52.018;6.306;2023-03-31T03:31:21;101994.38;;;9.82;100.00
18900;BME280;9582;52.018;6.306;2023-03-31T03:33:49;101997.91;;;9.81;100.00
18900;BME280;9582;52.018;6.306;2023-03-31T03:36:16;102000.53;;;9.80;95.57
18900;BME280;9582;52.018;6.306;2023-03-31T03:38:46;102008.38;;;9.80;93.32
18900;BME280;9582;52.018;6.306;2023-03-31T03:41:12;102014.50;;;9.79;91.67
18900;BME280;9582;52.018;6.306;2023-03-31T03:43:39;102024.09;;;9.78;90.29
18900;BME280;9582;52.018;6.306;2023-03-31T03:46:06;102014.50;;;9.79;88.35
18900;BME280;9582;52.018;6.306;2023-03-31T03:48:32;102008.44;;;9.78;85.50
18900;BME280;9582;52.018;6.306;2023-03-31T03:51:00;102011.91;;;9.79;83.70
18900;BME280;9582;52.018;6.306;2023-03-31T03:53:27;102007.59;;;9.76;79.17
18900;BME280;9582;52.018;6.306;2023-03-31T03:55:53;102002.41;;;9.75;77.18
18900;BME280;9582;52.018;6.306;2023-03-31T03:58:20;101999.78;;;9.75;71.81
18900;BME280;9582;52.018;6.306;2023-03-31T04:00:46;101993.75;;;9.73;70.53
18900;BME280;9582;52.018;6.306;2023-03-31T04:03:13;101989.41;;;9.72;68.61
18900;BME280;9582;52.018;6.306;2023-03-31T04:05:40;101986.78;;;9.72;67.36
18900;BME280;9582;52.018;6.306;2023-03-31T04:08:08;101993.81;;;9.70;66.66
18900;BME280;9582;52.018;6.306;2023-03-31T04:10:35;101993.81;;;9.70;66.24
18900;BME280;9582;52.018;6.306;2023-03-31T04:13:01;102018.19;;;9.70;65.67
18900;BME280;9582;52.018;6.306;2023-03-31T04:15:28;102025.16;;;9.70;65.19
18900;BME280;9582;52.018;6.306;2023-03-31T04:17:54;102012.97;;;9.69;64.69
18900;BME280;9582;52.018;6.306;2023-03-31T04:20:22;102015.59;;;9.69;64.27
18900;BME280;9582;52.018;6.306;2023-03-31T04:22:52;102016.50;;;9.68;63.64
18900;BME280;9582;52.018;6.306;2023-03-31T04:25:20;102013.91;;;9.68;63.28
18900;BME280;9582;52.018;6.306;2023-03-31T04:27:48;102023.44;;;9.69;62.12
18900;BME280;9582;52.018;6.306;2023-03-31T04:30:19;102023.44;;;9.69;61.52
18900;BME280;9582;52.018;6.306;2023-03-31T04:32:48;102032.13;;;9.69;61.15
18900;BME280;9582;52.018;6.306;2023-03-31T04:35:16;102027.78;;;9.68;61.00
18900;BME280;9582;52.018;6.306;2023-03-31T04:37:45;102030.41;;;9.68;60.83
18900;BME280;9582;52.018;6.306;2023-03-31T04:40:12;102013.91;;;9.68;60.68
18900;BME280;9582;52.018;6.306;2023-03-31T04:42:40;102019.13;;;9.68;60.52
18900;BME280;9582;52.018;6.306;2023-03-31T04:45:07;102019.13;;;9.66;60.04
18900;BME280;9582;52.018;6.306;2023-03-31T04:47:34;102002.66;;;9.64;59.93
18900;BME280;9582;52.018;6.306;2023-03-31T04:50:01;101995.69;;;9.65;59.81
18900;BME280;9582;52.018;6.306;2023-03-31T04:52:28;101992.16;;;9.66;59.67
18900;BME280;9582;52.018;6.306;2023-03-31T04:54:55;101983.44;;;9.65;59.54
18900;BME280;9582;52.018;6.306;2023-03-31T04:57:21;101991.28;;;9.67;59.42
18900;BME280;9582;52.018;6.306;2023-03-31T04:59:49;101988.66;;;9.67;59.30
18900;BME280;9582;52.018;6.306;2023-03-31T05:02:15;101982.63;;;9.65;59.23
18900;BME280;9582;52.018;6.306;2023-03-31T05:04:48;101973.06;;;9.64;59.18
18900;BME280;9582;52.018;6.306;2023-03-31T05:07:15;101972.19;;;9.63;59.10
18900;BME280;9582;52.018;6.306;2023-03-31T05:09:41;101965.28;;;9.62;59.05
18900;BME280;9582;52.018;6.306;2023-03-31T05:12:08;101960.88;;;9.63;58.95
18900;BME280;9582;52.018;6.306;2023-03-31T05:14:34;101961.78;;;9.62;58.92
18900;BME280;9582;52.018;6.306;2023-03-31T05:17:02;101959.19;;;9.62;58.85
18900;BME280;9582;52.018;6.306;2023-03-31T05:19:28;101957.44;;;9.61;58.78
18900;BME280;9582;52.018;6.306;2023-03-31T05:21:55;101951.38;;;9.60;58.71
18900;BME280;9582;52.018;6.306;2023-03-31T05:24:22;101952.22;;;9.61;58.61
18900;BME280;9582;52.018;6.306;2023-03-31T05:26:48;101947.00;;;9.61;58.54
18900;BME280;9582;52.018;6.306;2023-03-31T05:29:17;101951.34;;;9.62;58.46
18900;BME280;9582;52.018;6.306;2023-03-31T05:31:44;101936.56;;;9.61;58.32
18900;BME280;9582;52.018;6.306;2023-03-31T05:34:12;101953.13;;;9.60;58.20
18900;BME280;9582;52.018;6.306;2023-03-31T05:36:39;101945.28;;;9.60;58.07
18900;BME280;9582;52.018;6.306;2023-03-31T05:39:08;101950.44;;;9.63;57.97
18900;BME280;9582;52.018;6.306;2023-03-31T05:41:34;101953.97;;;9.62;57.91
18900;BME280;9582;52.018;6.306;2023-03-31T05:44:01;101957.38;;;9.64;57.81
18900;BME280;9582;52.018;6.306;2023-03-31T05:46:27;101959.13;;;9.65;57.69
18900;BME280;9582;52.018;6.306;2023-03-31T05:48:54;101955.59;;;9.66;57.67
18900;BME280;9582;52.018;6.306;2023-03-31T05:51:22;101948.63;;;9.66;57.64
18900;BME280;9582;52.018;6.306;2023-03-31T05:53:48;101940.84;;;9.65;57.60
18900;BME280;9582;52.018;6.306;2023-03-31T05:56:15;101935.63;;;9.65;57.60
18900;BME280;9582;52.018;6.306;2023-03-31T05:58:41;101935.63;;;9.65;57.58
18900;BME280;9582;52.018;6.306;2023-03-31T06:01:10;101935.63;;;9.65;57.55
18900;BME280;9582;52.018;6.306;2023-03-31T06:03:38;101925.13;;;9.66;57.54
18900;BME280;9582;52.018;6.306;2023-03-31T06:06:07;101920.75;;;9.67;57.52
18900;BME280;9582;52.018;6.306;2023-03-31T06:08:35;101926.84;;;9.67;57.51
18900;BME280;9582;52.018;6.306;2023-03-31T06:11:04;101927.72;;;9.68;57.49
18900;BME280;9582;52.018;6.306;2023-03-31T06:13:30;101912.03;;;9.68;57.49
18900;BME280;9582;52.018;6.306;2023-03-31T06:15:58;101904.16;;;9.69;57.48
18900;BME280;9582;52.018;6.306;2023-03-31T06:18:26;101915.47;;;9.70;57.49
18900;BME280;9582;52.018;6.306;2023-03-31T06:20:54;101914.53;;;9.72;57.52
18900;BME280;9582;52.018;6.306;2023-03-31T06:23:21;101916.25;;;9.73;57.54
18900;BME280;9582;52.018;6.306;2023-03-31T06:25:49;101905.75;;;9.75;57.56
18900;BME280;9582;52.018;6.306;2023-03-31T06:28:16;101905.69;;;9.78;57.58
18900;BME280;9582;52.018;6.306;2023-03-31T06:30:42;101891.75;;;9.79;57.64
18900;BME280;9582;52.018;6.306;2023-03-31T06:33:09;101890.75;;;9.83;57.70
18900;BME280;9582;52.018;6.306;2023-03-31T06:35:36;101882.91;;;9.84;57.77
18900;BME280;9582;52.018;6.306;2023-03-31T06:38:03;101876.72;;;9.87;57.87
18900;BME280;9582;52.018;6.306;2023-03-31T06:40:29;101863.63;;;9.88;57.94
18900;BME280;9582;52.018;6.306;2023-03-31T06:42:57;101864.41;;;9.92;58.07
18900;BME280;9582;52.018;6.306;2023-03-31T06:45:24;101857.31;;;9.97;58.16
18900;BME280;9582;52.018;6.306;2023-03-31T06:47:50;101855.47;;;10.01;58.26
18900;BME280;9582;52.018;6.306;2023-03-31T06:50:17;101856.19;;;10.07;58.36
18900;BME280;9582;52.018;6.306;2023-03-31T06:52:43;101851.69;;;10.12;58.48
18900;BME280;9582;52.018;6.306;2023-03-31T06:55:10;101855.06;;;10.17;58.60
18900;BME280;9582;52.018;6.306;2023-03-31T06:57:37;101855.69;;;10.27;58.68
18900;BME280;9582;52.018;6.306;2023-03-31T07:00:06;101851.97;;;10.35;58.79
18900;BME280;9582;52.018;6.306;2023-03-31T07:02:33;101851.69;;;10.44;58.88
18900;BME280;9582;52.018;6.306;2023-03-31T07:05:01;101847.13;;;10.53;59.03
18900;BME280;9582;52.018;6.306;2023-03-31T07:07:30;101849.53;;;10.59;59.24
18900;BME280;9582;52.018;6.306;2023-03-31T07:09:56;101843.34;;;10.63;59.54
18900;BME280;9582;52.018;6.306;2023-03-31T07:12:22;101835.50;;;10.63;59.95
18900;BME280;9582;52.018;6.306;2023-03-31T07:14:50;101827.66;;;10.63;60.51
18900;BME280;9582;52.018;6.306;2023-03-31T07:17:18;101815.47;;;10.62;61.22
18900;BME280;9582;52.018;6.306;2023-03-31T07:19:44;101790.16;;;10.62;61.81
18900;BME280;9582;52.018;6.306;2023-03-31T07:22:12;101780.47;;;10.66;62.23
18900;BME280;9582;52.018;6.306;2023-03-31T07:24:38;101776.13;;;10.65;62.85
18900;BME280;9582;52.018;6.306;2023-03-31T07:27:05;101763.06;;;10.65;64.34
18900;BME280;9582;52.018;6.306;2023-03-31T07:29:31;101750.84;;;10.65;66.52
18900;BME280;9582;52.018;6.306;2023-03-31T07:31:58;101748.19;;;10.67;68.06
18900;BME280;9582;52.018;6.306;2023-03-31T07:34:26;101728.34;;;10.60;69.52
18900;BME280;9582;52.018;6.306;2023-03-31T07:36:53;101715.41;;;10.55;71.54
18900;BME280;9582;52.018;6.306;2023-03-31T07:39:20;101708.41;;;10.56;73.04
18900;BME280;9582;52.018;6.306;2023-03-31T07:41:47;101700.63;;;10.54;74.62
18900;BME280;9582;52.018;6.306;2023-03-31T07:44:13;101694.59;;;10.52;76.27
18900;BME280;9582;52.018;6.306;2023-03-31T07:46:41;101686.00;;;10.47;77.64
18900;BME280;9582;52.018;6.306;2023-03-31T07:49:08;101678.28;;;10.44;79.37
18900;BME280;9582;52.018;6.306;2023-03-31T07:51:36;101678.38;;;10.41;80.73
18900;BME280;9582;52.018;6.306;2023-03-31T07:54:03;101665.34;;;10.39;81.53
18900;BME280;9582;52.018;6.306;2023-03-31T07:56:29;101658.53;;;10.34;82.42
18900;BME280;9582;52.018;6.306;2023-03-31T07:58:56;101648.22;;;10.29;83.22
18900;BME280;9582;52.018;6.306;2023-03-31T08:01:22;101628.38;;;10.22;84.37
18900;BME280;9582;52.018;6.306;2023-03-31T08:03:50;101619.75;;;10.20;84.66
18900;BME280;9582;52.018;6.306;2023-03-31T08:06:19;101605.03;;;10.18;84.47
18900;BME280;9582;52.018;6.306;2023-03-31T08:08:47;101599.03;;;10.14;84.45
18900;BME280;9582;52.018;6.306;2023-03-31T08:11:14;101590.31;;;10.14;85.04
18900;BME280;9582;52.018;6.306;2023-03-31T08:13:41;101583.41;;;10.13;85.67
18900;BME280;9582;52.018;6.306;2023-03-31T08:16:08;101586.81;;;10.15;84.90
18900;BME280;9582;52.018;6.306;2023-03-31T08:18:34;101575.56;;;10.11;84.53
18900;BME280;9582;52.018;6.306;2023-03-31T08:21:01;101561.72;;;10.08;84.16
18900;BME280;9582;52.018;6.306;2023-03-31T08:23:27;101560.06;;;10.05;83.00
18900;BME280;9582;52.018;6.306;2023-03-31T08:26:06;101540.13;;;10.03;83.40
18900;BME280;9582;52.018;6.306;2023-03-31T08:28:32;101540.13;;;10.03;82.40
18900;BME280;9582;52.018;6.306;2023-03-31T08:31:02;101536.56;;;10.05;81.71
18900;BME280;9582;52.018;6.306;2023-03-31T08:33:29;101533.81;;;10.10;80.20
18900;BME280;9582;52.018;6.306;2023-03-31T08:35:55;101542.31;;;10.16;79.11
18900;BME280;9582;52.018;6.306;2023-03-31T08:38:21;101541.34;;;10.20;77.92
18900;BME280;9582;52.018;6.306;2023-03-31T08:40:48;101542.97;;;10.24;76.98
18900;BME280;9582;52.018;6.306;2023-03-31T08:43:22;101540.22;;;10.27;76.73
18900;BME280;9582;52.018;6.306;2023-03-31T08:45:52;101534.97;;;10.29;76.63
18900;BME280;9582;52.018;6.306;2023-03-31T08:48:23;101536.53;;;10.34;76.41
18900;BME280;9582;52.018;6.306;2023-03-31T08:50:56;101541.47;;;10.43;75.44
18900;BME280;9582;52.018;6.306;2023-03-31T08:53:27;101543.88;;;10.50;74.76
18900;BME280;9582;52.018;6.306;2023-03-31T08:55:56;101550.50;;;10.60;75.33
18900;BME280;9582;52.018;6.306;2023-03-31T08:58:32;101547.53;;;10.70;75.62
18900;BME280;9582;52.018;6.306;2023-03-31T09:01:06;101557.66;;;10.81;75.22
18900;BME280;9582;52.018;6.306;2023-03-31T09:03:38;101564.16;;;10.94;75.67
18900;BME280;9582;52.018;6.306;2023-03-31T09:06:09;101568.16;;;11.04;76.48
18900;BME280;9582;52.018;6.306;2023-03-31T09:08:40;101575.50;;;11.19;76.59
18900;BME280;9582;52.018;6.306;2023-03-31T09:11:14;101574.31;;;11.28;76.73
18900;BME280;9582;52.018;6.306;2023-03-31T09:14:11;101578.38;;;11.36;79.38
18900;BME280;9582;52.018;6.306;2023-03-31T09:16:46;101580.56;;;11.48;82.71
18900;BME280;9582;52.018;6.306;2023-03-31T09:19:19;101585.22;;;11.64;87.51
18900;BME280;9582;52.018;6.306;2023-03-31T09:21:49;101575.19;;;11.76;93.20
18900;BME280;9582;52.018;6.306;2023-03-31T09:24:19;101581.94;;;12.05;100.00
18900;BME280;9582;52.018;6.306;2023-03-31T09:26:50;101577.06;;;12.18;100.00
18900;BME280;9582;52.018;6.306;2023-03-31T09:29:23;101567.06;;;12.27;100.00
18900;BME280;9582;52.018;6.306;2023-03-31T09:31:53;101563.25;;;12.34;100.00
18900;BME280;9582;52.018;6.306;2023-03-31T09:34:24;101543.88;;;12.38;100.00
18900;BME280;9582;52.018;6.306;2023-03-31T09:36:51;101534.13;;;12.42;100.00
18900;BME280;9582;52.018;6.306;2023-03-31T09:39:18;101522.66;;;12.44;100.00
18900;BME280;9582;52.018;6.306;2023-03-31T09:41:46;101502.38;;;12.48;100.00
18900;BME280;9582;52.018;6.306;2023-03-31T09:44:27;101487.38;;;12.51;100.00
18900;BME280;9582;52.018;6.306;2023-03-31T09:46:55;101470.59;;;12.55;100.00
18900;BME280;9582;52.018;6.306;2023-03-31T09:49:27;101456.00;;;12.48;100.00
18900;BME280;9582;52.018;6.306;2023-03-31T09:52:01;101431.69;;;12.45;100.00
18900;BME280;9582;52.018;6.306;2023-03-31T09:54:34;101413.66;;;12.37;100.00
18900;BME280;9582;52.018;6.306;2023-03-31T09:57:01;101402.38;;;12.35;100.00
18900;BME280;9582;52.018;6.306;2023-03-31T09:59:32;101369.34;;;12.31;100.00
18900;BME280;9582;52.018;6.306;2023-03-31T10:02:01;101359.66;;;12.33;100.00
18900;BME280;9582;52.018;6.306;2023-03-31T10:04:31;101345.72;;;12.31;100.00
18900;BME280;9582;52.018;6.306;2023-03-31T10:06:59;101344.56;;;12.38;100.00
18900;BME280;9582;52.018;6.306;2023-03-31T10:09:29;101319.25;;;12.37;100.00
18900;BME280;9582;52.018;6.306;2023-03-31T10:12:02;101317.13;;;12.45;100.00
18900;BME280;9582;52.018;6.306;2023-03-31T10:14:39;101304.66;;;12.50;100.00
18900;BME280;9582;52.018;6.306;2023-03-31T10:17:12;101303.91;;;12.67;100.00
18900;BME280;9582;52.018;6.306;2023-03-31T10:19:46;101302.34;;;12.82;100.00
18900;BME280;9582;52.018;6.306;2023-03-31T10:22:15;101283.19;;;12.80;100.00
18900;BME280;9582;52.018;6.306;2023-03-31T10:24:52;101268.56;;;12.93;100.00
18900;BME280;9582;52.018;6.306;2023-03-31T10:27:21;101263.25;;;12.94;100.00
18900;BME280;9582;52.018;6.306;2023-03-31T10:29:52;101256.63;;;13.04;100.00
18900;BME280;9582;52.018;6.306;2023-03-31T10:32:23;101240.81;;;13.06;100.00
18900;BME280;9582;52.018;6.306;2023-03-31T10:34:51;101219.75;;;13.07;100.00
18900;BME280;9582;52.018;6.306;2023-03-31T10:37:21;101211.94;;;13.06;100.00
18900;BME280;9582;52.018;6.306;2023-03-31T10:39:55;101185.69;;;13.06;100.00
18900;BME280;9582;52.018;6.306;2023-03-31T10:42:23;101163.13;;;13.02;100.00
18900;BME280;9582;52.018;6.306;2023-03-31T10:45:10;101151.25;;;12.95;100.00
18900;BME280;9582;52.018;6.306;2023-03-31T10:47:39;101115.53;;;12.73;100.00
18900;BME280;9582;52.018;6.306;2023-03-31T10:50:13;101081.56;;;12.53;100.00
18900;BME280;9582;52.018;6.306;2023-03-31T10:52:45;101069.06;;;12.41;100.00
18900;BME280;9582;52.018;6.306;2023-03-31T10:55:13;101054.38;;;12.37;100.00
18900;BME280;9582;52.018;6.306;2023-03-31T10:57:48;101044.34;;;12.45;100.00
18900;BME280;9582;52.018;6.306;2023-03-31T11:00:26;101039.59;;;12.53;100.00
18900;BME280;9582;52.018;6.306;2023-03-31T11:03:07;101015.78;;;12.58;100.00
18900;BME280;9582;52.018;6.306;2023-03-31T11:05:44;101005.28;;;12.58;100.00
18900;BME280;9582;52.018;6.306;2023-03-31T11:08:23;100994.47;;;12.64;100.00
18900;BME280;9582;52.018;6.306;2023-03-31T11:11:00;100964.78;;;12.63;100.00
18900;BME280;9582;52.018;6.306;2023-03-31T11:13:34;100956.81;;;12.65;100.00
18900;BME280;9582;52.018;6.306;2023-03-31T11:16:10;100939.00;;;12.71;100.00
18900;BME280;9582;52.018;6.306;2023-03-31T11:18:48;100927.88;;;12.84;100.00
18900;BME280;9582;52.018;6.306;2023-03-31T11:21:23;100928.91;;;12.97;100.00
18900;BME280;9582;52.018;6.306;2023-03-31T11:24:00;100917.06;;;13.05;100.00
18900;BME280;9582;52.018;6.306;2023-03-31T11:26:41;100900.94;;;13.13;100.00
18900;BME280;9582;52.018;6.306;2023-03-31T11:29:20;100892.56;;;13.22;100.00
18900;BME280;9582;52.018;6.306;2023-03-31T11:31:57;100881.56;;;13.31;100.00
18900;BME280;9582;52.018;6.306;2023-03-31T11:34:49;100856.06;;;13.33;100.00
18900;BME280;9582;52.018;6.306;2023-03-31T11:37:35;100844.63;;;13.34;100.00
18900;BME280;9582;52.018;6.306;2023-03-31T11:40:26;100843.34;;;13.41;100.00
18900;BME280;9582;52.018;6.306;2023-03-31T11:42:58;100818.34;;;13.50;100.00
18900;BME280;9582;52.018;6.306;2023-03-31T11:45:28;100804.34;;;13.49;100.00
18900;BME280;9582;52.018;6.306;2023-03-31T11:48:04;100799.34;;;13.60;100.00
18900;BME280;9582;52.018;6.306;2023-03-31T11:50:35;100778.50;;;13.57;100.00
18900;BME280;9582;52.018;6.306;2023-03-31T11:53:06;100772.66;;;13.52;100.00
18900;BME280;9582;52.018;6.306;2023-03-31T11:55:36;100738.69;;;13.49;100.00
18900;BME280;9582;52.018;6.306;2023-03-31T11:58:05;100714.81;;;13.38;100.00
18900;BME280;9582;52.018;6.306;2023-03-31T12:00:35;100701.63;;;13.40;100.00
18900;BME280;9582;52.018;6.306;2023-03-31T12:03:09;100687.34;;;13.44;100.00
18900;BME280;9582;52.018;6.306;2023-03-31T12:05:41;100674.63;;;13.52;100.00
18900;BME280;9582;52.018;6.306;2023-03-31T12:08:13;100662.81;;;13.59;100.00
18900;BME280;9582;52.018;6.306;2023-03-31T12:10:44;100654.88;;;13.74;100.00
18900;BME280;9582;52.018;6.306;2023-03-31T12:13:28;100655.16;;;13.84;100.00
18900;BME280;9582;52.018;6.306;2023-03-31T12:16:02;100638.53;;;13.83;100.00
18900;BME280;9582;52.018;6.306;2023-03-31T12:18:35;100613.94;;;13.70;100.00
18900;BME280;9582;52.018;6.306;2023-03-31T12:21:03;100607.75;;;13.71;100.00
18900;BME280;9582;52.018;6.306;2023-03-31T12:23:34;100594.03;;;13.66;100.00
18900;BME280;9582;52.018;6.306;2023-03-31T12:26:07;100590.28;;;13.70;100.00
18900;BME280;9582;52.018;6.306;2023-03-31T12:28:40;100588.50;;;13.85;100.00
18900;BME280;9582;52.018;6.306;2023-03-31T12:31:11;100585.22;;;13.96;100.00
18900;BME280;9582;52.018;6.306;2023-03-31T12:33:46;100561.72;;;14.07;100.00
18900;BME280;9582;52.018;6.306;2023-03-31T12:36:27;100567.44;;;14.13;100.00
18900;BME280;9582;52.018;6.306;2023-03-31T12:39:05;100535.63;;;14.04;100.00
18900;BME280;9582;52.018;6.306;2023-03-31T12:41:43;100517.59;;;13.98;100.00
18900;BME280;9582;52.018;6.306;2023-03-31T12:44:23;100510.19;;;14.04;100.00
18900;BME280;9582;52.018;6.306;2023-03-31T12:47:18;100488.84;;;14.09;100.00
18900;BME280;9582;52.018;6.306;2023-03-31T12:50:01;100476.13;;;14.03;100.00
18900;BME280;9582;52.018;6.306;2023-03-31T12:52:39;100463.63;;;13.92;100.00
18900;BME280;9582;52.018;6.306;2023-03-31T12:55:32;100442.19;;;13.85;100.00
18900;BME280;9582;52.018;6.306;2023-03-31T12:58:35;100439.59;;;13.71;100.00
18900;BME280;9582;52.018;6.306;2023-03-31T13:01:05;100423.69;;;13.60;100.00
18900;BME280;9582;52.018;6.306;2023-03-31T13:03:43;100399.28;;;13.44;100.00
18900;BME280;9582;52.018;6.306;2023-03-31T13:09:46;100390.88;;;13.39;100.00
18900;BME280;9582;52.018;6.306;2023-03-31T13:12:18;100397.94;;;13.65;100.00
18900;BME280;9582;52.018;6.306;2023-03-31T13:14:47;100392.41;;;13.97;100.00
18900;BME280;9582;52.018;6.306;2023-03-31T13:17:24;100395.84;;;13.97;100.00
18900;BME280;9582;52.018;6.306;2023-03-31T13:19:52;100380.13;;;13.83;100.00
18900;BME280;9582;52.018;6.306;2023-03-31T13:22:32;100373.78;;;13.73;100.00
18900;BME280;9582;52.018;6.306;2023-03-31T13:25:25;100383.91;;;13.79;100.00
18900;BME280;9582;52.018;6.306;2023-03-31T13:27:52;100381.94;;;13.82;100.00
18900;BME280;9582;52.018;6.306;2023-03-31T13:30:45;100372.94;;;13.72;100.00
18900;BME280;9582;52.018;6.306;2023-03-31T13:33:14;100354.53;;;13.60;100.00
18900;BME280;9582;52.018;6.306;2023-03-31T13:35:46;100360.16;;;13.54;100.00
18900;BME280;9582;52.018;6.306;2023-03-31T13:38:22;100355.00;;;13.52;100.00
18900;BME280;9582;52.018;6.306;2023-03-31T13:40:59;100363.84;;;13.51;100.00
18900;BME280;9582;52.018;6.306;2023-03-31T13:43:40;100340.19;;;13.51;100.00
18900;BME280;9582;52.018;6.306;2023-03-31T13:46:26;100346.38;;;13.50;100.00
18900;BME280;9582;52.018;6.306;2023-03-31T13:49:02;100352.50;;;13.63;100.00